Station Historical Data
Daily Summary for June 26, 2012 Units:  Both    English   Metric
« Previous Day
Next Day »
Daily Weekly Monthly Yearly Custom
  High: Low: Average:
Temperature: 88.8 °F /  31.6 °C 67.7 °F /  19.8 °C 78.4 °F /  25.8 °C
Dew Point: 65.7 °F /  18.7 °C 45.0 °F /  7.2 °C 53.8 °F /  12.1 °C
Humidity: 67% 23% 46%
Wind Speed: 14.0mph /  22.5km/h - 5mph /  8km/h
Wind Gust: 20.0mph /  32.2km/h - -
Wind- - ESE
Pressure: 29.83 in /  1010 hPa 29.71 in /  1006 hPa -
Precipitation: 0.00 in /  0 mm    
Historical Graphs
 
 
Tabular Data for June 26, 2012
Time Temperature Dew Point Pressure Wind Wind Speed Wind Gust Humidity Rainfall Rate (Hourly) Conditions
00:00 79.9 °F /  26.6 °C 65.7 °F /  18.7 °C 29.72in /  1006.3hPa North 3.0mph /  4.8km/h 7.0mph /  11.3km/h 62% 0.00in /  0mm
00:01 79.9 °F /  26.6 °C 65.7 °F /  18.7 °C 29.72in /  1006.3hPa NNW 2.0mph /  3.2km/h 7.0mph /  11.3km/h 62% 0.00in /  0mm
00:06 79.9 °F /  26.6 °C 65.7 °F /  18.7 °C 29.72in /  1006.3hPa NNE 2.0mph /  3.2km/h 6.0mph /  9.7km/h 62% 0.00in /  0mm
00:11 79.8 °F /  26.6 °C 65.6 °F /  18.7 °C 29.72in /  1006.3hPa NE 7.0mph /  11.3km/h 7.0mph /  11.3km/h 62% 0.00in /  0mm
00:16 79.9 °F /  26.6 °C 65.3 °F /  18.5 °C 29.72in /  1006.3hPa NE 5.0mph /  8km/h 8.0mph /  12.9km/h 61% 0.00in /  0mm
00:21 80.1 °F /  26.7 °C 65.4 °F /  18.6 °C 29.72in /  1006.3hPa North 4.0mph /  6.4km/h 10.0mph /  16.1km/h 61% 0.00in /  0mm
00:26 80.0 °F /  26.7 °C 65.4 °F /  18.6 °C 29.72in /  1006.3hPa NE 4.0mph /  6.4km/h 6.0mph /  9.7km/h 61% 0.00in /  0mm
00:31 79.9 °F /  26.6 °C 65.3 °F /  18.5 °C 29.72in /  1006.3hPa NE 9.0mph /  14.5km/h 9.0mph /  14.5km/h 61% 0.00in /  0mm
00:36 79.9 °F /  26.6 °C 65.3 °F /  18.5 °C 29.72in /  1006.3hPa NE 6.0mph /  9.7km/h 8.0mph /  12.9km/h 61% 0.00in /  0mm
00:42 79.7 °F /  26.5 °C 65.1 °F /  18.4 °C 29.72in /  1006.3hPa NNE 3.0mph /  4.8km/h 9.0mph /  14.5km/h 61% 0.00in /  0mm
00:47 79.6 °F /  26.4 °C 65.0 °F /  18.3 °C 29.72in /  1006.3hPa NNE 3.0mph /  4.8km/h 5.0mph /  8km/h 61% 0.00in /  0mm
00:52 79.5 °F /  26.4 °C 64.9 °F /  18.3 °C 29.72in /  1006.3hPa NE 5.0mph /  8km/h 7.0mph /  11.3km/h 61% 0.00in /  0mm
00:57 79.4 °F /  26.3 °C 64.8 °F /  18.2 °C 29.72in /  1006.3hPa NE 5.0mph /  8km/h 7.0mph /  11.3km/h 61% 0.00in /  0mm
01:02 79.3 °F /  26.3 °C 64.7 °F /  18.2 °C 29.72in /  1006.3hPa ENE 2.0mph /  3.2km/h 8.0mph /  12.9km/h 61% 0.00in /  0mm
01:07 79.3 °F /  26.3 °C 64.7 °F /  18.2 °C 29.72in /  1006.3hPa North 4.0mph /  6.4km/h 11.0mph /  17.7km/h 61% 0.00in /  0mm
01:12 79.2 °F /  26.2 °C 64.6 °F /  18.1 °C 29.72in /  1006.3hPa NE 5.0mph /  8km/h 8.0mph /  12.9km/h 61% 0.00in /  0mm
01:17 79.2 °F /  26.2 °C 64.6 °F /  18.1 °C 29.72in /  1006.3hPa NNE 2.0mph /  3.2km/h 10.0mph /  16.1km/h 61% 0.00in /  0mm
01:22 79.0 °F /  26.1 °C 64.4 °F /  18 °C 29.72in /  1006.3hPa NNE 4.0mph /  6.4km/h 8.0mph /  12.9km/h 61% 0.00in /  0mm
01:27 78.9 °F /  26.1 °C 64.3 °F /  17.9 °C 29.72in /  1006.3hPa NE 2.0mph /  3.2km/h 5.0mph /  8km/h 61% 0.00in /  0mm
01:32 78.6 °F /  25.9 °C 64.0 °F /  17.8 °C 29.72in /  1006.3hPa NNE 4.0mph /  6.4km/h 6.0mph /  9.7km/h 61% 0.00in /  0mm
01:37 78.5 °F /  25.8 °C 64.0 °F /  17.8 °C 29.72in /  1006.3hPa NE 3.0mph /  4.8km/h 5.0mph /  8km/h 61% 0.00in /  0mm
01:42 78.3 °F /  25.7 °C 64.2 °F /  17.9 °C 29.72in /  1006.3hPa NNE 1.0mph /  1.6km/h 10.0mph /  16.1km/h 62% 0.00in /  0mm
01:47 78.1 °F /  25.6 °C 63.6 °F /  17.6 °C 29.72in /  1006.3hPa NE 2.0mph /  3.2km/h 5.0mph /  8km/h 61% 0.00in /  0mm
01:52 78.0 °F /  25.6 °C 63.5 °F /  17.5 °C 29.72in /  1006.3hPa NNE 4.0mph /  6.4km/h 9.0mph /  14.5km/h 61% 0.00in /  0mm
01:57 77.8 °F /  25.4 °C 63.3 °F /  17.4 °C 29.72in /  1006.3hPa NE 4.0mph /  6.4km/h 8.0mph /  12.9km/h 61% 0.00in /  0mm
02:02 77.8 °F /  25.4 °C 63.3 °F /  17.4 °C 29.72in /  1006.3hPa NNE 3.0mph /  4.8km/h 6.0mph /  9.7km/h 61% 0.00in /  0mm
02:07 77.6 °F /  25.3 °C 63.1 °F /  17.3 °C 29.72in /  1006.3hPa North 3.0mph /  4.8km/h 5.0mph /  8km/h 61% 0.00in /  0mm
02:12 77.5 °F /  25.3 °C 63.0 °F /  17.2 °C 29.72in /  1006.3hPa NE 5.0mph /  8km/h 8.0mph /  12.9km/h 61% 0.00in /  0mm
02:17 77.4 °F /  25.2 °C 62.9 °F /  17.2 °C 29.72in /  1006.3hPa NE 6.0mph /  9.7km/h 9.0mph /  14.5km/h 61% 0.00in /  0mm
02:22 77.3 °F /  25.2 °C 62.8 °F /  17.1 °C 29.72in /  1006.3hPa NNE 2.0mph /  3.2km/h 8.0mph /  12.9km/h 61% 0.00in /  0mm
02:27 77.1 °F /  25.1 °C 62.6 °F /  17 °C 29.72in /  1006.3hPa NNE 3.0mph /  4.8km/h 7.0mph /  11.3km/h 61% 0.00in /  0mm
02:32 77.0 °F /  25 °C 63.0 °F /  17.2 °C 29.72in /  1006.3hPa NNE 7.0mph /  11.3km/h 7.0mph /  11.3km/h 62% 0.00in /  0mm
02:37 76.9 °F /  24.9 °C 62.4 °F /  16.9 °C 29.72in /  1006.3hPa NE 3.0mph /  4.8km/h 6.0mph /  9.7km/h 61% 0.00in /  0mm
02:42 76.7 °F /  24.8 °C 62.2 °F /  16.8 °C 29.72in /  1006.3hPa NNE 6.0mph /  9.7km/h 7.0mph /  11.3km/h 61% 0.00in /  0mm
02:47 76.5 °F /  24.7 °C 62.1 °F /  16.7 °C 29.72in /  1006.3hPa NNE 3.0mph /  4.8km/h 7.0mph /  11.3km/h 61% 0.00in /  0mm
02:52 76.3 °F /  24.6 °C 62.3 °F /  16.8 °C 29.72in /  1006.3hPa NNE 3.0mph /  4.8km/h 6.0mph /  9.7km/h 62% 0.00in /  0mm
02:57 76.2 °F /  24.6 °C 62.2 °F /  16.8 °C 29.72in /  1006.3hPa NNE 2.0mph /  3.2km/h 5.0mph /  8km/h 62% 0.00in /  0mm
03:02 76.0 °F /  24.4 °C 62.0 °F /  16.7 °C 29.71in /  1006hPa NNE 7.0mph /  11.3km/h 8.0mph /  12.9km/h 62% 0.00in /  0mm
03:07 76.0 °F /  24.4 °C 61.6 °F /  16.4 °C 29.72in /  1006.3hPa NNE 2.0mph /  3.2km/h 7.0mph /  11.3km/h 61% 0.00in /  0mm
03:12 75.8 °F /  24.3 °C 61.4 °F /  16.3 °C 29.72in /  1006.3hPa ENE 1.0mph /  1.6km/h 6.0mph /  9.7km/h 61% 0.00in /  0mm
03:17 75.7 °F /  24.3 °C 61.3 °F /  16.3 °C 29.72in /  1006.3hPa NE 7.0mph /  11.3km/h 7.0mph /  11.3km/h 61% 0.00in /  0mm
03:22 75.4 °F /  24.1 °C 61.5 °F /  16.4 °C 29.72in /  1006.3hPa NE 2.0mph /  3.2km/h 6.0mph /  9.7km/h 62% 0.00in /  0mm
03:27 75.2 °F /  24 °C 61.3 °F /  16.3 °C 29.72in /  1006.3hPa NNE 7.0mph /  11.3km/h 7.0mph /  11.3km/h 62% 0.00in /  0mm
03:32 75.1 °F /  23.9 °C 60.8 °F /  16 °C 29.72in /  1006.3hPa NNE 3.0mph /  4.8km/h 6.0mph /  9.7km/h 61% 0.00in /  0mm
03:38 75.2 °F /  24 °C 60.8 °F /  16 °C 29.72in /  1006.3hPa NNE 5.0mph /  8km/h 10.0mph /  16.1km/h 61% 0.00in /  0mm
03:43 75.0 °F /  23.9 °C 60.7 °F /  15.9 °C 29.72in /  1006.3hPa NE 4.0mph /  6.4km/h 6.0mph /  9.7km/h 61% 0.00in /  0mm
03:48 74.8 °F /  23.8 °C 60.9 °F /  16.1 °C 29.72in /  1006.3hPa NE 10.0mph /  16.1km/h 10.0mph /  16.1km/h 62% 0.00in /  0mm
03:53 74.7 °F /  23.7 °C 60.4 °F /  15.8 °C 29.72in /  1006.3hPa NE 7.0mph /  11.3km/h 9.0mph /  14.5km/h 61% 0.00in /  0mm
03:58 74.7 °F /  23.7 °C 60.4 °F /  15.8 °C 29.72in /  1006.3hPa North 3.0mph /  4.8km/h 11.0mph /  17.7km/h 61% 0.00in /  0mm
04:03 74.6 °F /  23.7 °C 60.3 °F /  15.7 °C 29.72in /  1006.3hPa North 6.0mph /  9.7km/h 9.0mph /  14.5km/h 61% 0.00in /  0mm
04:08 74.3 °F /  23.5 °C 60.5 °F /  15.8 °C 29.73in /  1006.7hPa NW 1.0mph /  1.6km/h 5.0mph /  8km/h 62% 0.00in /  0mm
04:13 74.0 °F /  23.3 °C 60.2 °F /  15.7 °C 29.72in /  1006.3hPa NNE 3.0mph /  4.8km/h 6.0mph /  9.7km/h 62% 0.00in /  0mm
04:18 73.8 °F /  23.2 °C 60.4 °F /  15.8 °C 29.72in /  1006.3hPa NNE 3.0mph /  4.8km/h 6.0mph /  9.7km/h 63% 0.00in /  0mm
04:23 73.5 °F /  23.1 °C 60.2 °F /  15.7 °C 29.72in /  1006.3hPa NNW 5.0mph /  8km/h 7.0mph /  11.3km/h 63% 0.00in /  0mm
04:28 73.4 °F /  23 °C 60.0 °F /  15.6 °C 29.72in /  1006.3hPa NNW 3.0mph /  4.8km/h 7.0mph /  11.3km/h 63% 0.00in /  0mm
04:33 73.1 °F /  22.8 °C 59.8 °F /  15.4 °C 29.72in /  1006.3hPa North 2.0mph /  3.2km/h 8.0mph /  12.9km/h 63% 0.00in /  0mm
04:38 73.0 °F /  22.8 °C 59.7 °F /  15.4 °C 29.73in /  1006.7hPa North 4.0mph /  6.4km/h 7.0mph /  11.3km/h 63% 0.00in /  0mm
04:43 72.7 °F /  22.6 °C 59.8 °F /  15.4 °C 29.73in /  1006.7hPa NNE 4.0mph /  6.4km/h 5.0mph /  8km/h 64% 0.00in /  0mm
04:48 72.5 °F /  22.5 °C 59.6 °F /  15.3 °C 29.73in /  1006.7hPa NE 3.0mph /  4.8km/h 6.0mph /  9.7km/h 64% 0.00in /  0mm
04:53 72.3 °F /  22.4 °C 59.5 °F /  15.3 °C 29.73in /  1006.7hPa North 8.0mph /  12.9km/h 8.0mph /  12.9km/h 64% 0.00in /  0mm
04:58 72.2 °F /  22.3 °C 59.4 °F /  15.2 °C 29.73in /  1006.7hPa NNE 4.0mph /  6.4km/h 8.0mph /  12.9km/h 64% 0.00in /  0mm
05:03 72.0 °F /  22.2 °C 59.2 °F /  15.1 °C 29.74in /  1007hPa NNE 2.0mph /  3.2km/h 6.0mph /  9.7km/h 64% 0.00in /  0mm
05:08 71.8 °F /  22.1 °C 59.0 °F /  15 °C 29.74in /  1007hPa NNW 2.0mph /  3.2km/h 8.0mph /  12.9km/h 64% 0.00in /  0mm
05:13 71.6 °F /  22 °C 58.8 °F /  14.9 °C 29.74in /  1007hPa NE 3.0mph /  4.8km/h 6.0mph /  9.7km/h 64% 0.00in /  0mm
05:18 71.4 °F /  21.9 °C 59.0 °F /  15 °C 29.74in /  1007hPa NNE 1.0mph /  1.6km/h 4.0mph /  6.4km/h 65% 0.00in /  0mm
05:23 71.1 °F /  21.7 °C 58.8 °F /  14.9 °C 29.74in /  1007hPa North 4.0mph /  6.4km/h 8.0mph /  12.9km/h 65% 0.00in /  0mm
05:28 71.0 °F /  21.7 °C 58.7 °F /  14.8 °C 29.74in /  1007hPa NNE 5.0mph /  8km/h 7.0mph /  11.3km/h 65% 0.00in /  0mm
05:33 70.9 °F /  21.6 °C 58.6 °F /  14.8 °C 29.74in /  1007hPa NE 7.0mph /  11.3km/h 10.0mph /  16.1km/h 65% 0.00in /  0mm
05:38 70.8 °F /  21.6 °C 58.5 °F /  14.7 °C 29.75in /  1007.3hPa NNE 3.0mph /  4.8km/h 11.0mph /  17.7km/h 65% 0.00in /  0mm
05:43 70.6 °F /  21.4 °C 58.3 °F /  14.6 °C 29.75in /  1007.3hPa NNE 3.0mph /  4.8km/h 7.0mph /  11.3km/h 65% 0.00in /  0mm
05:48 70.4 °F /  21.3 °C 58.1 °F /  14.5 °C 29.74in /  1007hPa North 4.0mph /  6.4km/h 7.0mph /  11.3km/h 65% 0.00in /  0mm
05:53 70.2 °F /  21.2 °C 57.9 °F /  14.4 °C 29.75in /  1007.3hPa NNE 4.0mph /  6.4km/h 8.0mph /  12.9km/h 65% 0.00in /  0mm
05:58 70.3 °F /  21.3 °C 58.0 °F /  14.4 °C 29.74in /  1007hPa North 4.0mph /  6.4km/h 9.0mph /  14.5km/h 65% 0.00in /  0mm
06:03 70.0 °F /  21.1 °C 57.7 °F /  14.3 °C 29.75in /  1007.3hPa NE 1.0mph /  1.6km/h 6.0mph /  9.7km/h 65% 0.00in /  0mm
06:08 69.6 °F /  20.9 °C 57.3 °F /  14.1 °C 29.75in /  1007.3hPa NE 5.0mph /  8km/h 7.0mph /  11.3km/h 65% 0.00in /  0mm
06:13 69.6 °F /  20.9 °C 57.3 °F /  14.1 °C 29.75in /  1007.3hPa NE 3.0mph /  4.8km/h 7.0mph /  11.3km/h 65% 0.00in /  0mm
06:18 69.4 °F /  20.8 °C 57.1 °F /  13.9 °C 29.75in /  1007.3hPa NE 3.0mph /  4.8km/h 6.0mph /  9.7km/h 65% 0.00in /  0mm
06:24 69.1 °F /  20.6 °C 57.3 °F /  14.1 °C 29.76in /  1007.7hPa NNE 3.0mph /  4.8km/h 6.0mph /  9.7km/h 66% 0.00in /  0mm
06:29 68.8 °F /  20.4 °C 57.0 °F /  13.9 °C 29.76in /  1007.7hPa North 5.0mph /  8km/h 5.0mph /  8km/h 66% 0.00in /  0mm
06:34 68.5 °F /  20.3 °C 57.1 °F /  13.9 °C 29.76in /  1007.7hPa NE 1.0mph /  1.6km/h 4.0mph /  6.4km/h 67% 0.00in /  0mm
06:39 68.2 °F /  20.1 °C 56.8 °F /  13.8 °C 29.76in /  1007.7hPa NE 3.0mph /  4.8km/h 7.0mph /  11.3km/h 67% 0.00in /  0mm
06:44 68.1 °F /  20.1 °C 56.7 °F /  13.7 °C 29.76in /  1007.7hPa North 2.0mph /  3.2km/h 6.0mph /  9.7km/h 67% 0.00in /  0mm
06:49 68.0 °F /  20 °C 56.7 °F /  13.7 °C 29.76in /  1007.7hPa NE 5.0mph /  8km/h 7.0mph /  11.3km/h 67% 0.00in /  0mm
06:54 67.9 °F /  19.9 °C 56.1 °F /  13.4 °C 29.77in /  1008hPa NE 3.0mph /  4.8km/h 5.0mph /  8km/h 66% 0.00in /  0mm
06:59 67.7 °F /  19.8 °C 56.0 °F /  13.3 °C 29.77in /  1008hPa NE 3.0mph /  4.8km/h 5.0mph /  8km/h 66% 0.00in /  0mm
07:04 67.8 °F /  19.9 °C 56.0 °F /  13.3 °C 29.77in /  1008hPa NE 3.0mph /  4.8km/h 5.0mph /  8km/h 66% 0.00in /  0mm
07:09 68.2 °F /  20.1 °C 56.4 °F /  13.6 °C 29.77in /  1008hPa NNE 2.0mph /  3.2km/h 6.0mph /  9.7km/h 66% 0.00in /  0mm
07:14 68.4 °F /  20.2 °C 56.2 °F /  13.4 °C 29.76in /  1007.7hPa NNW 4.0mph /  6.4km/h 8.0mph /  12.9km/h 65% 0.00in /  0mm
07:19 68.6 °F /  20.3 °C 56.0 °F /  13.3 °C 29.77in /  1008hPa NE 4.0mph /  6.4km/h 4.0mph /  6.4km/h 64% 0.00in /  0mm
07:24 68.7 °F /  20.4 °C 56.0 °F /  13.3 °C 29.77in /  1008hPa North 4.0mph /  6.4km/h 7.0mph /  11.3km/h 64% 0.00in /  0mm
07:29 68.9 °F /  20.5 °C 55.8 °F /  13.2 °C 29.77in /  1008hPa NE 5.0mph /  8km/h 5.0mph /  8km/h 63% 0.00in /  0mm
07:34 69.0 °F /  20.6 °C 55.9 °F /  13.3 °C 29.77in /  1008hPa NNE 5.0mph /  8km/h 6.0mph /  9.7km/h 63% 0.00in /  0mm
07:39 69.1 °F /  20.6 °C 55.1 °F /  12.8 °C 29.77in /  1008hPa North 3.0mph /  4.8km/h 11.0mph /  17.7km/h 61% 0.00in /  0mm
07:44 69.3 °F /  20.7 °C 55.3 °F /  12.9 °C 29.77in /  1008hPa NNW 2.0mph /  3.2km/h 8.0mph /  12.9km/h 61% 0.00in /  0mm
07:49 69.5 °F /  20.8 °C 55.0 °F /  12.8 °C 29.77in /  1008hPa NE 3.0mph /  4.8km/h 10.0mph /  16.1km/h 60% 0.00in /  0mm
07:54 69.7 °F /  20.9 °C 55.2 °F /  12.9 °C 29.77in /  1008hPa North 11.0mph /  17.7km/h 11.0mph /  17.7km/h 60% 0.00in /  0mm
07:59 69.8 °F /  21 °C 54.8 °F /  12.7 °C 29.77in /  1008hPa NNE 4.0mph /  6.4km/h 7.0mph /  11.3km/h 59% 0.00in /  0mm
08:04 70.0 °F /  21.1 °C 55.0 °F /  12.8 °C 29.77in /  1008hPa North 7.0mph /  11.3km/h 8.0mph /  12.9km/h 59% 0.00in /  0mm
08:09 70.1 °F /  21.2 °C 54.7 °F /  12.6 °C 29.78in /  1008.4hPa NW 2.0mph /  3.2km/h 9.0mph /  14.5km/h 58% 0.00in /  0mm
08:14 70.2 °F /  21.2 °C 54.8 °F /  12.7 °C 29.78in /  1008.4hPa NNE 14.0mph /  22.5km/h 14.0mph /  22.5km/h 58% 0.00in /  0mm
08:19 70.3 °F /  21.3 °C 54.4 °F /  12.4 °C 29.77in /  1008hPa NNE 4.0mph /  6.4km/h 13.0mph /  20.9km/h 57% 0.00in /  0mm
08:24 70.4 °F /  21.3 °C 54.5 °F /  12.5 °C 29.77in /  1008hPa NNE 8.0mph /  12.9km/h 12.0mph /  19.3km/h 57% 0.00in /  0mm
08:29 70.5 °F /  21.4 °C 54.5 °F /  12.5 °C 29.77in /  1008hPa NNE 8.0mph /  12.9km/h 11.0mph /  17.7km/h 57% 0.00in /  0mm
08:34 70.6 °F /  21.4 °C 54.6 °F /  12.6 °C 29.78in /  1008.4hPa NNE 6.0mph /  9.7km/h 12.0mph /  19.3km/h 57% 0.00in /  0mm
08:39 70.8 °F /  21.6 °C 53.8 °F /  12.1 °C 29.78in /  1008.4hPa NE 11.0mph /  17.7km/h 13.0mph /  20.9km/h 55% 0.00in /  0mm
08:44 70.9 °F /  21.6 °C 54.0 °F /  12.2 °C 29.78in /  1008.4hPa NE 4.0mph /  6.4km/h 10.0mph /  16.1km/h 55% 0.00in /  0mm
08:49 71.2 °F /  21.8 °C 54.2 °F /  12.3 °C 29.78in /  1008.4hPa NNE 8.0mph /  12.9km/h 12.0mph /  19.3km/h 55% 0.00in /  0mm
08:54 71.1 °F /  21.7 °C 54.1 °F /  12.3 °C 29.78in /  1008.4hPa NE 6.0mph /  9.7km/h 11.0mph /  17.7km/h 55% 0.00in /  0mm
08:59 71.4 °F /  21.9 °C 53.9 °F /  12.2 °C 29.78in /  1008.4hPa NE 8.0mph /  12.9km/h 17.0mph /  27.4km/h 54% 0.00in /  0mm
09:04 71.3 °F /  21.8 °C 53.8 °F /  12.1 °C 29.79in /  1008.7hPa North 6.0mph /  9.7km/h 13.0mph /  20.9km/h 54% 0.00in /  0mm
09:09 71.5 °F /  21.9 °C 54.0 °F /  12.2 °C 29.79in /  1008.7hPa North 8.0mph /  12.9km/h 12.0mph /  19.3km/h 54% 0.00in /  0mm
09:14 71.7 °F /  22.1 °C 54.2 °F /  12.3 °C 29.79in /  1008.7hPa NNE 9.0mph /  14.5km/h 10.0mph /  16.1km/h 54% 0.00in /  0mm
09:19 71.8 °F /  22.1 °C 53.8 °F /  12.1 °C 29.79in /  1008.7hPa NE 9.0mph /  14.5km/h 12.0mph /  19.3km/h 53% 0.00in /  0mm
09:24 71.9 °F /  22.2 °C 54.4 °F /  12.4 °C 29.79in /  1008.7hPa NNW 9.0mph /  14.5km/h 12.0mph /  19.3km/h 54% 0.00in /  0mm
09:29 72.1 °F /  22.3 °C 54.6 °F /  12.6 °C 29.79in /  1008.7hPa NE 8.0mph /  12.9km/h 12.0mph /  19.3km/h 54% 0.00in /  0mm
09:34 72.4 °F /  22.4 °C 54.3 °F /  12.4 °C 29.79in /  1008.7hPa NNE 5.0mph /  8km/h 12.0mph /  19.3km/h 53% 0.00in /  0mm
09:39 72.7 °F /  22.6 °C 54.6 °F /  12.6 °C 29.80in /  1009hPa NNE 8.0mph /  12.9km/h 11.0mph /  17.7km/h 53% 0.00in /  0mm
09:44 73.1 °F /  22.8 °C 55.0 °F /  12.8 °C 29.80in /  1009hPa NE 7.0mph /  11.3km/h 12.0mph /  19.3km/h 53% 0.00in /  0mm
09:49 73.2 °F /  22.9 °C 54.5 °F /  12.5 °C 29.80in /  1009hPa ENE 11.0mph /  17.7km/h 11.0mph /  17.7km/h 52% 0.00in /  0mm
09:54 73.3 °F /  22.9 °C 54.6 °F /  12.6 °C 29.80in /  1009hPa NE 7.0mph /  11.3km/h 12.0mph /  19.3km/h 52% 0.00in /  0mm
09:59 73.5 °F /  23.1 °C 55.3 °F /  12.9 °C 29.80in /  1009hPa NE 7.0mph /  11.3km/h 10.0mph /  16.1km/h 53% 0.00in /  0mm
10:04 73.6 °F /  23.1 °C 54.9 °F /  12.7 °C 29.80in /  1009hPa ENE 8.0mph /  12.9km/h 9.0mph /  14.5km/h 52% 0.00in /  0mm
10:09 74.1 °F /  23.4 °C 55.9 °F /  13.3 °C 29.80in /  1009hPa North 4.0mph /  6.4km/h 8.0mph /  12.9km/h 53% 0.00in /  0mm
10:15 74.6 °F /  23.7 °C 55.8 °F /  13.2 °C 29.80in /  1009hPa NE 7.0mph /  11.3km/h 11.0mph /  17.7km/h 52% 0.00in /  0mm
10:20 74.7 °F /  23.7 °C 55.9 °F /  13.3 °C 29.80in /  1009hPa NNE 8.0mph /  12.9km/h 9.0mph /  14.5km/h 52% 0.00in /  0mm
10:25 74.6 °F /  23.7 °C 56.4 °F /  13.6 °C 29.80in /  1009hPa NE 9.0mph /  14.5km/h 11.0mph /  17.7km/h 53% 0.00in /  0mm
10:29 74.9 °F /  23.8 °C 56.1 °F /  13.4 °C 29.79in /  1008.7hPa NE 7.0mph /  11.3km/h 9.0mph /  14.5km/h 52% 0.00in /  0mm
10:34 75.1 °F /  23.9 °C 56.3 °F /  13.5 °C 29.80in /  1009hPa NNE 10.0mph /  16.1km/h 10.0mph /  16.1km/h 52% 0.00in /  0mm
10:40 75.3 °F /  24.1 °C 57.5 °F /  14.2 °C 29.79in /  1008.7hPa NE 6.0mph /  9.7km/h 11.0mph /  17.7km/h 54% 0.00in /  0mm
10:45 75.3 °F /  24.1 °C 55.9 °F /  13.3 °C 29.79in /  1008.7hPa ENE 4.0mph /  6.4km/h 11.0mph /  17.7km/h 51% 0.00in /  0mm
10:50 75.9 °F /  24.4 °C 57.6 °F /  14.2 °C 29.79in /  1008.7hPa North 6.0mph /  9.7km/h 6.0mph /  9.7km/h 53% 0.00in /  0mm
10:55 76.2 °F /  24.6 °C 57.8 °F /  14.3 °C 29.79in /  1008.7hPa NNE 4.0mph /  6.4km/h 9.0mph /  14.5km/h 53% 0.00in /  0mm
11:00 77.0 °F /  25 °C 57.5 °F /  14.2 °C 29.79in /  1008.7hPa NE 8.0mph /  12.9km/h 8.0mph /  12.9km/h 51% 0.00in /  0mm
11:05 76.9 °F /  24.9 °C 56.9 °F /  13.8 °C 29.80in /  1009hPa NNE 2.0mph /  3.2km/h 8.0mph /  12.9km/h 50% 0.00in /  0mm
11:10 77.1 °F /  25.1 °C 57.0 °F /  13.9 °C 29.80in /  1009hPa NNE 3.0mph /  4.8km/h 9.0mph /  14.5km/h 50% 0.00in /  0mm
11:15 77.5 °F /  25.3 °C 58.5 °F /  14.7 °C 29.80in /  1009hPa NNE 4.0mph /  6.4km/h 8.0mph /  12.9km/h 52% 0.00in /  0mm
11:20 78.0 °F /  25.6 °C 59.5 °F /  15.3 °C 29.80in /  1009hPa NE 6.0mph /  9.7km/h 7.0mph /  11.3km/h 53% 0.00in /  0mm
11:25 78.1 °F /  25.6 °C 58.5 °F /  14.7 °C 29.80in /  1009hPa ENE 6.0mph /  9.7km/h 11.0mph /  17.7km/h 51% 0.00in /  0mm
11:30 78.1 °F /  25.6 °C 58.0 °F /  14.4 °C 29.80in /  1009hPa NNE 8.0mph /  12.9km/h 13.0mph /  20.9km/h 50% 0.00in /  0mm
11:35 78.2 °F /  25.7 °C 58.6 °F /  14.8 °C 29.80in /  1009hPa NNE 5.0mph /  8km/h 10.0mph /  16.1km/h 51% 0.00in /  0mm
11:40 78.8 °F /  26 °C 59.7 °F /  15.4 °C 29.80in /  1009hPa WNW 3.0mph /  4.8km/h 10.0mph /  16.1km/h 52% 0.00in /  0mm
11:45 79.0 °F /  26.1 °C 58.8 °F /  14.9 °C 29.80in /  1009hPa NNE 6.0mph /  9.7km/h 12.0mph /  19.3km/h 50% 0.00in /  0mm
11:50 79.3 °F /  26.3 °C 59.1 °F /  15.1 °C 29.80in /  1009hPa NE 11.0mph /  17.7km/h 11.0mph /  17.7km/h 50% 0.00in /  0mm
11:55 79.2 °F /  26.2 °C 58.4 °F /  14.7 °C 29.80in /  1009hPa NNW 5.0mph /  8km/h 12.0mph /  19.3km/h 49% 0.00in /  0mm
12:00 79.8 °F /  26.6 °C 59.5 °F /  15.3 °C 29.80in /  1009hPa North 3.0mph /  4.8km/h 10.0mph /  16.1km/h 50% 0.00in /  0mm
12:05 80.1 °F /  26.7 °C 59.2 °F /  15.1 °C 29.80in /  1009hPa NE 3.0mph /  4.8km/h 7.0mph /  11.3km/h 49% 0.00in /  0mm
12:10 80.3 °F /  26.8 °C 58.2 °F /  14.6 °C 29.79in /  1008.7hPa NNE 5.0mph /  8km/h 13.0mph /  20.9km/h 47% 0.00in /  0mm
12:15 80.5 °F /  26.9 °C 59.6 °F /  15.3 °C 29.80in /  1009hPa North 6.0mph /  9.7km/h 11.0mph /  17.7km/h 49% 0.00in /  0mm
12:20 81.0 °F /  27.2 °C 57.7 °F /  14.3 °C 29.79in /  1008.7hPa NNE 9.0mph /  14.5km/h 11.0mph /  17.7km/h 45% 0.00in /  0mm
12:25 80.8 °F /  27.1 °C 57.5 °F /  14.2 °C 29.79in /  1008.7hPa NE 7.0mph /  11.3km/h 10.0mph /  16.1km/h 45% 0.00in /  0mm
12:30 81.5 °F /  27.5 °C 58.8 °F /  14.9 °C 29.79in /  1008.7hPa NE 4.0mph /  6.4km/h 10.0mph /  16.1km/h 46% 0.00in /  0mm
12:35 81.8 °F /  27.7 °C 56.5 °F /  13.6 °C 29.79in /  1008.7hPa NE 7.0mph /  11.3km/h 14.0mph /  22.5km/h 42% 0.00in /  0mm
12:40 81.8 °F /  27.7 °C 57.1 °F /  13.9 °C 29.79in /  1008.7hPa NNE 5.0mph /  8km/h 8.0mph /  12.9km/h 43% 0.00in /  0mm
12:45 82.2 °F /  27.9 °C 56.8 °F /  13.8 °C 29.79in /  1008.7hPa NNW 7.0mph /  11.3km/h 12.0mph /  19.3km/h 42% 0.00in /  0mm
12:50 82.4 °F /  28 °C 55.0 °F /  12.8 °C 29.79in /  1008.7hPa NNE 4.0mph /  6.4km/h 11.0mph /  17.7km/h 39% 0.00in /  0mm
12:55 82.6 °F /  28.1 °C 54.5 °F /  12.5 °C 29.79in /  1008.7hPa NE 10.0mph /  16.1km/h 10.0mph /  16.1km/h 38% 0.00in /  0mm
13:00 82.7 °F /  28.2 °C 53.1 °F /  11.7 °C 29.79in /  1008.7hPa NNE 8.0mph /  12.9km/h 14.0mph /  22.5km/h 36% 0.00in /  0mm
13:05 83.4 °F /  28.6 °C 55.2 °F /  12.9 °C 29.78in /  1008.4hPa NNE 7.0mph /  11.3km/h 9.0mph /  14.5km/h 38% 0.00in /  0mm
13:10 84.0 °F /  28.9 °C 50.2 °F /  10.1 °C 29.78in /  1008.4hPa NNE 4.0mph /  6.4km/h 12.0mph /  19.3km/h 31% 0.00in /  0mm
13:15 83.9 °F /  28.8 °C 51.8 °F /  11 °C 29.78in /  1008.4hPa ENE 7.0mph /  11.3km/h 11.0mph /  17.7km/h 33% 0.00in /  0mm
13:20 84.1 °F /  28.9 °C 52.7 °F /  11.5 °C 29.78in /  1008.4hPa NNE 6.0mph /  9.7km/h 13.0mph /  20.9km/h 34% 0.00in /  0mm
13:25 84.5 °F /  29.2 °C 50.6 °F /  10.3 °C 29.78in /  1008.4hPa NE 11.0mph /  17.7km/h 11.0mph /  17.7km/h 31% 0.00in /  0mm
13:30 84.9 °F /  29.4 °C 49.1 °F /  9.5 °C 29.78in /  1008.4hPa North 8.0mph /  12.9km/h 15.0mph /  24.1km/h 29% 0.00in /  0mm
13:35 85.2 °F /  29.6 °C 52.0 °F /  11.1 °C 29.78in /  1008.4hPa NE 10.0mph /  16.1km/h 13.0mph /  20.9km/h 32% 0.00in /  0mm
13:40 85.3 °F /  29.6 °C 52.1 °F /  11.2 °C 29.78in /  1008.4hPa North 8.0mph /  12.9km/h 11.0mph /  17.7km/h 32% 0.00in /  0mm
13:45 86.1 °F /  30.1 °C 48.2 °F /  9 °C 29.78in /  1008.4hPa NNE 8.0mph /  12.9km/h 9.0mph /  14.5km/h 27% 0.00in /  0mm
13:50 85.8 °F /  29.9 °C 47.0 °F /  8.3 °C 29.78in /  1008.4hPa NE 9.0mph /  14.5km/h 14.0mph /  22.5km/h 26% 0.00in /  0mm
13:55 85.4 °F /  29.7 °C 46.7 °F /  8.2 °C 29.78in /  1008.4hPa ENE 5.0mph /  8km/h 13.0mph /  20.9km/h 26% 0.00in /  0mm
14:00 85.5 °F /  29.7 °C 51.4 °F /  10.8 °C 29.78in /  1008.4hPa NW 4.0mph /  6.4km/h 9.0mph /  14.5km/h 31% 0.00in /  0mm
14:05 85.9 °F /  29.9 °C 50.9 °F /  10.5 °C 29.77in /  1008hPa North 8.0mph /  12.9km/h 12.0mph /  19.3km/h 30% 0.00in /  0mm
14:10 86.4 °F /  30.2 °C 50.4 °F /  10.2 °C 29.77in /  1008hPa North 10.0mph /  16.1km/h 10.0mph /  16.1km/h 29% 0.00in /  0mm
14:15 86.2 °F /  30.1 °C 50.2 °F /  10.1 °C 29.77in /  1008hPa NE 10.0mph /  16.1km/h 20.0mph /  32.2km/h 29% 0.00in /  0mm
14:20 86.2 °F /  30.1 °C 48.3 °F /  9.1 °C 29.78in /  1008.4hPa North 6.0mph /  9.7km/h 13.0mph /  20.9km/h 27% 0.00in /  0mm
14:25 86.5 °F /  30.3 °C 51.4 °F /  10.8 °C 29.77in /  1008hPa NNE 9.0mph /  14.5km/h 14.0mph /  22.5km/h 30% 0.00in /  0mm
14:30 86.5 °F /  30.3 °C 48.6 °F /  9.2 °C 29.77in /  1008hPa NNE 11.0mph /  17.7km/h 14.0mph /  22.5km/h 27% 0.00in /  0mm
14:35 86.4 °F /  30.2 °C 47.5 °F /  8.6 °C 29.77in /  1008hPa North 9.0mph /  14.5km/h 15.0mph /  24.1km/h 26% 0.00in /  0mm
14:40 86.4 °F /  30.2 °C 48.5 °F /  9.2 °C 29.77in /  1008hPa NNW 4.0mph /  6.4km/h 13.0mph /  20.9km/h 27% 0.00in /  0mm
14:45 86.8 °F /  30.4 °C 50.8 °F /  10.4 °C 29.77in /  1008hPa North 6.0mph /  9.7km/h 10.0mph /  16.1km/h 29% 0.00in /  0mm
14:51 86.9 °F /  30.5 °C 48.9 °F /  9.4 °C 29.77in /  1008hPa NE 13.0mph /  20.9km/h 14.0mph /  22.5km/h 27% 0.00in /  0mm
14:56 86.6 °F /  30.3 °C 46.6 °F /  8.1 °C 29.77in /  1008hPa NE 11.0mph /  17.7km/h 11.0mph /  17.7km/h 25% 0.00in /  0mm
15:01 86.7 °F /  30.4 °C 47.8 °F /  8.8 °C 29.77in /  1008hPa NE 4.0mph /  6.4km/h 10.0mph /  16.1km/h 26% 0.00in /  0mm
15:06 87.1 °F /  30.6 °C 49.1 °F /  9.5 °C 29.76in /  1007.7hPa NE 5.0mph /  8km/h 12.0mph /  19.3km/h 27% 0.00in /  0mm
15:11 87.1 °F /  30.6 °C 47.0 °F /  8.3 °C 29.76in /  1007.7hPa NE 11.0mph /  17.7km/h 15.0mph /  24.1km/h 25% 0.00in /  0mm
15:16 87.3 °F /  30.7 °C 47.2 °F /  8.4 °C 29.76in /  1007.7hPa NE 11.0mph /  17.7km/h 14.0mph /  22.5km/h 25% 0.00in /  0mm
15:21 87.1 °F /  30.6 °C 47.0 °F /  8.3 °C 29.76in /  1007.7hPa NNE 7.0mph /  11.3km/h 13.0mph /  20.9km/h 25% 0.00in /  0mm
15:26 87.2 °F /  30.7 °C 47.1 °F /  8.4 °C 29.76in /  1007.7hPa North 6.0mph /  9.7km/h 12.0mph /  19.3km/h 25% 0.00in /  0mm
15:31 87.5 °F /  30.8 °C 45.2 °F /  7.3 °C 29.76in /  1007.7hPa NE 7.0mph /  11.3km/h 13.0mph /  20.9km/h 23% 0.00in /  0mm
15:36 87.0 °F /  30.6 °C 47.0 °F /  8.3 °C 29.76in /  1007.7hPa NE 9.0mph /  14.5km/h 9.0mph /  14.5km/h 25% 0.00in /  0mm
15:41 87.4 °F /  30.8 °C 49.3 °F /  9.6 °C 29.76in /  1007.7hPa NE 6.0mph /  9.7km/h 10.0mph /  16.1km/h 27% 0.00in /  0mm
15:46 87.8 °F /  31 °C 48.7 °F /  9.3 °C 29.76in /  1007.7hPa NE 6.0mph /  9.7km/h 11.0mph /  17.7km/h 26% 0.00in /  0mm
15:51 88.1 °F /  31.2 °C 47.9 °F /  8.8 °C 29.76in /  1007.7hPa NNE 5.0mph /  8km/h 13.0mph /  20.9km/h 25% 0.00in /  0mm
15:56 88.0 °F /  31.1 °C 46.7 °F /  8.2 °C 29.76in /  1007.7hPa NNE 7.0mph /  11.3km/h 9.0mph /  14.5km/h 24% 0.00in /  0mm
16:01 88.4 °F /  31.3 °C 49.2 °F /  9.6 °C 29.76in /  1007.7hPa NE 6.0mph /  9.7km/h 9.0mph /  14.5km/h 26% 0.00in /  0mm
16:06 88.2 °F /  31.2 °C 48.0 °F /  8.9 °C 29.76in /  1007.7hPa ENE 6.0mph /  9.7km/h 12.0mph /  19.3km/h 25% 0.00in /  0mm
16:11 88.2 °F /  31.2 °C 49.0 °F /  9.4 °C 29.76in /  1007.7hPa NE 4.0mph /  6.4km/h 13.0mph /  20.9km/h 26% 0.00in /  0mm
16:16 88.7 °F /  31.5 °C 48.4 °F /  9.1 °C 29.76in /  1007.7hPa NW 5.0mph /  8km/h 11.0mph /  17.7km/h 25% 0.00in /  0mm
16:21 88.6 °F /  31.4 °C 47.2 °F /  8.4 °C 29.76in /  1007.7hPa NNW 7.0mph /  11.3km/h 12.0mph /  19.3km/h 24% 0.00in /  0mm
16:26 88.8 °F /  31.6 °C 47.4 °F /  8.6 °C 29.76in /  1007.7hPa NE 10.0mph /  16.1km/h 10.0mph /  16.1km/h 24% 0.00in /  0mm
16:31 88.4 °F /  31.3 °C 48.1 °F /  8.9 °C 29.76in /  1007.7hPa NNW 12.0mph /  19.3km/h 12.0mph /  19.3km/h 25% 0.00in /  0mm
16:37 88.3 °F /  31.3 °C 48.1 °F /  8.9 °C 29.76in /  1007.7hPa NNE 6.0mph /  9.7km/h 11.0mph /  17.7km/h 25% 0.00in /  0mm
16:42 88.4 °F /  31.3 °C 48.1 °F /  8.9 °C 29.76in /  1007.7hPa NE 5.0mph /  8km/h 10.0mph /  16.1km/h 25% 0.00in /  0mm
16:47 88.5 °F /  31.4 °C 48.2 °F /  9 °C 29.76in /  1007.7hPa NW 7.0mph /  11.3km/h 13.0mph /  20.9km/h 25% 0.00in /  0mm
16:52 88.8 °F /  31.6 °C 47.4 °F /  8.6 °C 29.76in /  1007.7hPa NNE 13.0mph /  20.9km/h 16.0mph /  25.7km/h 24% 0.00in /  0mm
16:57 88.6 °F /  31.4 °C 48.3 °F /  9.1 °C 29.76in /  1007.7hPa North 12.0mph /  19.3km/h 14.0mph /  22.5km/h 25% 0.00in /  0mm
17:02 88.5 °F /  31.4 °C 48.2 °F /  9 °C 29.76in /  1007.7hPa NW 7.0mph /  11.3km/h 12.0mph /  19.3km/h 25% 0.00in /  0mm
17:07 88.7 °F /  31.5 °C 49.5 °F /  9.7 °C 29.76in /  1007.7hPa NE 4.0mph /  6.4km/h 15.0mph /  24.1km/h 26% 0.00in /  0mm
17:12 88.7 °F /  31.5 °C 48.4 °F /  9.1 °C 29.77in /  1008hPa North 14.0mph /  22.5km/h 14.0mph /  22.5km/h 25% 0.00in /  0mm
17:17 88.4 °F /  31.3 °C 48.1 °F /  8.9 °C 29.77in /  1008hPa North 5.0mph /  8km/h 14.0mph /  22.5km/h 25% 0.00in /  0mm
17:22 88.6 °F /  31.4 °C 48.3 °F /  9.1 °C 29.77in /  1008hPa NNE 9.0mph /  14.5km/h 10.0mph /  16.1km/h 25% 0.00in /  0mm
17:27 88.7 °F /  31.5 °C 47.3 °F /  8.5 °C 29.77in /  1008hPa North 4.0mph /  6.4km/h 10.0mph /  16.1km/h 24% 0.00in /  0mm
17:32 88.5 °F /  31.4 °C 47.1 °F /  8.4 °C 29.76in /  1007.7hPa NNW 13.0mph /  20.9km/h 13.0mph /  20.9km/h 24% 0.00in /  0mm
17:37 88.4 °F /  31.3 °C 45.9 °F /  7.7 °C 29.76in /  1007.7hPa ENE 12.0mph /  19.3km/h 17.0mph /  27.4km/h 23% 0.00in /  0mm
17:42 88.2 °F /  31.2 °C 45.8 °F /  7.7 °C 29.76in /  1007.7hPa NNE 7.0mph /  11.3km/h 9.0mph /  14.5km/h 23% 0.00in /  0mm
17:47 88.1 °F /  31.2 °C 45.7 °F /  7.6 °C 29.76in /  1007.7hPa North 7.0mph /  11.3km/h 10.0mph /  16.1km/h 23% 0.00in /  0mm
17:52 88.1 °F /  31.2 °C 47.9 °F /  8.8 °C 29.76in /  1007.7hPa North 7.0mph /  11.3km/h 12.0mph /  19.3km/h 25% 0.00in /  0mm
17:57 87.9 °F /  31.1 °C 46.6 °F /  8.1 °C 29.76in /  1007.7hPa NNE 11.0mph /  17.7km/h 13.0mph /  20.9km/h 24% 0.00in /  0mm
18:02 87.9 °F /  31.1 °C 46.6 °F /  8.1 °C 29.76in /  1007.7hPa NNE 7.0mph /  11.3km/h 14.0mph /  22.5km/h 24% 0.00in /  0mm
18:07 87.7 °F /  30.9 °C 45.3 °F /  7.4 °C 29.76in /  1007.7hPa North 7.0mph /  11.3km/h 16.0mph /  25.7km/h 23% 0.00in /  0mm
18:12 87.6 °F /  30.9 °C 45.3 °F /  7.4 °C 29.76in /  1007.7hPa NNE 5.0mph /  8km/h 15.0mph /  24.1km/h 23% 0.00in /  0mm
18:17 87.6 °F /  30.9 °C 46.4 °F /  8 °C 29.76in /  1007.7hPa NNW 5.0mph /  8km/h 9.0mph /  14.5km/h 24% 0.00in /  0mm
18:22 87.7 °F /  30.9 °C 46.5 °F /  8.1 °C 29.76in /  1007.7hPa NNW 8.0mph /  12.9km/h 10.0mph /  16.1km/h 24% 0.00in /  0mm
18:27 87.5 °F /  30.8 °C 46.3 °F /  7.9 °C 29.76in /  1007.7hPa NE 11.0mph /  17.7km/h 11.0mph /  17.7km/h 24% 0.00in /  0mm
18:32 87.5 °F /  30.8 °C 47.4 °F /  8.6 °C 29.76in /  1007.7hPa NNW 6.0mph /  9.7km/h 10.0mph /  16.1km/h 25% 0.00in /  0mm
18:37 87.7 °F /  30.9 °C 45.3 °F /  7.4 °C 29.76in /  1007.7hPa NNE 4.0mph /  6.4km/h 8.0mph /  12.9km/h 23% 0.00in /  0mm
18:42 87.5 °F /  30.8 °C 46.3 °F /  7.9 °C 29.76in /  1007.7hPa NNE 6.0mph /  9.7km/h 9.0mph /  14.5km/h 24% 0.00in /  0mm
18:47 87.3 °F /  30.7 °C 47.2 °F /  8.4 °C 29.76in /  1007.7hPa North 5.0mph /  8km/h 12.0mph /  19.3km/h 25% 0.00in /  0mm
18:52 87.3 °F /  30.7 °C 47.2 °F /  8.4 °C 29.77in /  1008hPa North 5.0mph /  8km/h 12.0mph /  19.3km/h 25% 0.00in /  0mm
18:57 86.7 °F /  30.4 °C 46.7 °F /  8.2 °C 29.77in /  1008hPa NNE 6.0mph /  9.7km/h 12.0mph /  19.3km/h 25% 0.00in /  0mm
19:02 86.4 °F /  30.2 °C 46.5 °F /  8.1 °C 29.76in /  1007.7hPa North 5.0mph /  8km/h 11.0mph /  17.7km/h 25% 0.00in /  0mm
19:07 86.3 °F /  30.2 °C 47.4 °F /  8.6 °C 29.77in /  1008hPa NE 8.0mph /  12.9km/h 9.0mph /  14.5km/h 26% 0.00in /  0mm
19:12 86.1 °F /  30.1 °C 46.2 °F /  7.9 °C 29.76in /  1007.7hPa North 7.0mph /  11.3km/h 11.0mph /  17.7km/h 25% 0.00in /  0mm
19:17 85.9 °F /  29.9 °C 46.0 °F /  7.8 °C 29.76in /  1007.7hPa North 4.0mph /  6.4km/h 8.0mph /  12.9km/h 25% 0.00in /  0mm
19:22 85.7 °F /  29.8 °C 45.9 °F /  7.7 °C 29.76in /  1007.7hPa NNE 4.0mph /  6.4km/h 8.0mph /  12.9km/h 25% 0.00in /  0mm
19:28 85.6 °F /  29.8 °C 46.8 °F /  8.2 °C 29.76in /  1007.7hPa NNE 5.0mph /  8km/h 8.0mph /  12.9km/h 26% 0.00in /  0mm
19:33 85.6 °F /  29.8 °C 45.8 °F /  7.7 °C 29.76in /  1007.7hPa North 7.0mph /  11.3km/h 7.0mph /  11.3km/h 25% 0.00in /  0mm
19:38 85.4 °F /  29.7 °C 45.6 °F /  7.6 °C 29.76in /  1007.7hPa NE 4.0mph /  6.4km/h 5.0mph /  8km/h 25% 0.00in /  0mm
19:43 85.2 °F /  29.6 °C 46.5 °F /  8.1 °C 29.76in /  1007.7hPa North 4.0mph /  6.4km/h 8.0mph /  12.9km/h 26% 0.00in /  0mm
19:48 85.0 °F /  29.4 °C 45.3 °F /  7.4 °C 29.76in /  1007.7hPa North 6.0mph /  9.7km/h 8.0mph /  12.9km/h 25% 0.00in /  0mm
19:53 84.7 °F /  29.3 °C 45.0 °F /  7.2 °C 29.77in /  1008hPa North 6.0mph /  9.7km/h 11.0mph /  17.7km/h 25% 0.00in /  0mm
19:58 84.5 °F /  29.2 °C 45.9 °F /  7.7 °C 29.76in /  1007.7hPa NE 4.0mph /  6.4km/h 8.0mph /  12.9km/h 26% 0.00in /  0mm
20:03 84.2 °F /  29 °C 45.6 °F /  7.6 °C 29.76in /  1007.7hPa NE 2.0mph /  3.2km/h 10.0mph /  16.1km/h 26% 0.00in /  0mm
20:08 83.9 °F /  28.8 °C 46.4 °F /  8 °C 29.76in /  1007.7hPa NNE 2.0mph /  3.2km/h 8.0mph /  12.9km/h 27% 0.00in /  0mm
20:13 83.6 °F /  28.7 °C 46.1 °F /  7.8 °C 29.76in /  1007.7hPa NNE 3.0mph /  4.8km/h 8.0mph /  12.9km/h 27% 0.00in /  0mm
20:18 83.6 °F /  28.7 °C 46.1 °F /  7.8 °C 29.76in /  1007.7hPa North 2.0mph /  3.2km/h 3.0mph /  4.8km/h 27% 0.00in /  0mm
20:23 83.3 °F /  28.5 °C 45.9 °F /  7.7 °C 29.77in /  1008hPa NE 3.0mph /  4.8km/h 4.0mph /  6.4km/h 27% 0.00in /  0mm
20:28 83.0 °F /  28.3 °C 46.6 °F /  8.1 °C 29.77in /  1008hPa NE 1.0mph /  1.6km/h 4.0mph /  6.4km/h 28% 0.00in /  0mm
20:33 82.8 °F /  28.2 °C 46.4 °F /  8 °C 29.77in /  1008hPa North 2.0mph /  3.2km/h 4.0mph /  6.4km/h 28% 0.00in /  0mm
20:38 82.3 °F /  27.9 °C 46.0 °F /  7.8 °C 29.77in /  1008hPa NNE 1.0mph /  1.6km/h 5.0mph /  8km/h 28% 0.00in /  0mm
20:43 81.8 °F /  27.7 °C 46.5 °F /  8.1 °C 29.76in /  1007.7hPa NE 2.0mph /  3.2km/h 6.0mph /  9.7km/h 29% 0.00in /  0mm
20:48 81.3 °F /  27.4 °C 46.9 °F /  8.3 °C 29.76in /  1007.7hPa NE 2.0mph /  3.2km/h 5.0mph /  8km/h 30% 0.00in /  0mm
20:53 80.6 °F /  27 °C 46.3 °F /  7.9 °C 29.77in /  1008hPa Calm   3.0mph /  4.8km/h 30% 0.00in /  0mm
20:58 79.8 °F /  26.6 °C 46.5 °F /  8.1 °C 29.77in /  1008hPa North 1.0mph /  1.6km/h 3.0mph /  4.8km/h 31% 0.00in /  0mm
21:03 78.8 °F /  26 °C 46.5 °F /  8.1 °C 29.77in /  1008hPa NNE 1.0mph /  1.6km/h 3.0mph /  4.8km/h 32% 0.00in /  0mm
21:08 78.3 °F /  25.7 °C 46.9 °F /  8.3 °C 29.77in /  1008hPa NNE 1.0mph /  1.6km/h 2.0mph /  3.2km/h 33% 0.00in /  0mm
21:13 77.7 °F /  25.4 °C 46.3 °F /  7.9 °C 29.77in /  1008hPa NNE 2.0mph /  3.2km/h 2.0mph /  3.2km/h 33% 0.00in /  0mm
21:18 77.3 °F /  25.2 °C 46.0 °F /  7.8 °C 29.77in /  1008hPa North 2.0mph /  3.2km/h 2.0mph /  3.2km/h 33% 0.00in /  0mm
21:23 76.8 °F /  24.9 °C 46.3 °F /  7.9 °C 29.78in /  1008.4hPa North 1.0mph /  1.6km/h 3.0mph /  4.8km/h 34% 0.00in /  0mm
21:28 76.3 °F /  24.6 °C 46.7 °F /  8.2 °C 29.78in /  1008.4hPa NNE 1.0mph /  1.6km/h 2.0mph /  3.2km/h 35% 0.00in /  0mm
21:33 76.0 °F /  24.4 °C 47.2 °F /  8.4 °C 29.78in /  1008.4hPa NNE 2.0mph /  3.2km/h 2.0mph /  3.2km/h 36% 0.00in /  0mm
21:38 75.8 °F /  24.3 °C 47.0 °F /  8.3 °C 29.78in /  1008.4hPa Calm   2.0mph /  3.2km/h 36% 0.00in /  0mm
21:43 75.4 °F /  24.1 °C 47.3 °F /  8.5 °C 29.79in /  1008.7hPa Calm   2.0mph /  3.2km/h 37% 0.00in /  0mm
21:48 74.8 °F /  23.8 °C 47.5 °F /  8.6 °C 29.79in /  1008.7hPa NNE 1.0mph /  1.6km/h 2.0mph /  3.2km/h 38% 0.00in /  0mm
21:53 74.4 °F /  23.6 °C 47.9 °F /  8.8 °C 29.79in /  1008.7hPa North 2.0mph /  3.2km/h 3.0mph /  4.8km/h 39% 0.00in /  0mm
21:58 74.0 °F /  23.3 °C 48.2 °F /  9 °C 29.79in /  1008.7hPa North 2.0mph /  3.2km/h 3.0mph /  4.8km/h 40% 0.00in /  0mm
22:03 73.9 °F /  23.3 °C 48.1 °F /  8.9 °C 29.79in /  1008.7hPa North 3.0mph /  4.8km/h 4.0mph /  6.4km/h 40% 0.00in /  0mm
22:08 73.7 °F /  23.2 °C 47.9 °F /  8.8 °C 29.79in /  1008.7hPa NNW 2.0mph /  3.2km/h 4.0mph /  6.4km/h 40% 0.00in /  0mm
22:13 73.5 °F /  23.1 °C 47.7 °F /  8.7 °C 29.79in /  1008.7hPa North 3.0mph /  4.8km/h 3.0mph /  4.8km/h 40% 0.00in /  0mm
22:19 73.4 °F /  23 °C 47.6 °F /  8.7 °C 29.80in /  1009hPa North 2.0mph /  3.2km/h 5.0mph /  8km/h 40% 0.00in /  0mm
22:24 73.3 °F /  22.9 °C 48.2 °F /  9 °C 29.80in /  1009hPa North 1.0mph /  1.6km/h 2.0mph /  3.2km/h 41% 0.00in /  0mm
22:29 73.0 °F /  22.8 °C 47.9 °F /  8.8 °C 29.80in /  1009hPa NNW 1.0mph /  1.6km/h 2.0mph /  3.2km/h 41% 0.00in /  0mm
22:34 72.8 °F /  22.7 °C 47.8 °F /  8.8 °C 29.80in /  1009hPa North 1.0mph /  1.6km/h 2.0mph /  3.2km/h 41% 0.00in /  0mm
22:39 72.7 °F /  22.6 °C 47.7 °F /  8.7 °C 29.80in /  1009hPa North 2.0mph /  3.2km/h 2.0mph /  3.2km/h 41% 0.00in /  0mm
22:44 72.5 °F /  22.5 °C 47.5 °F /  8.6 °C 29.80in /  1009hPa NNW 2.0mph /  3.2km/h 2.0mph /  3.2km/h 41% 0.00in /  0mm
22:49 72.2 °F /  22.3 °C 47.9 °F /  8.8 °C 29.81in /  1009.4hPa NNW 1.0mph /  1.6km/h 2.0mph /  3.2km/h 42% 0.00in /  0mm
22:54 71.7 °F /  22.1 °C 47.4 °F /  8.6 °C 29.81in /  1009.4hPa North 1.0mph /  1.6km/h 2.0mph /  3.2km/h 42% 0.00in /  0mm
22:59 71.6 °F /  22 °C 47.9 °F /  8.8 °C 29.81in /  1009.4hPa NNW 1.0mph /  1.6km/h 3.0mph /  4.8km/h 43% 0.00in /  0mm
23:04 71.4 °F /  21.9 °C 47.8 °F /  8.8 °C 29.81in /  1009.4hPa North 1.0mph /  1.6km/h 2.0mph /  3.2km/h 43% 0.00in /  0mm
23:09 71.2 °F /  21.8 °C 48.2 °F /  9 °C 29.81in /  1009.4hPa North 2.0mph /  3.2km/h 2.0mph /  3.2km/h 44% 0.00in /  0mm
23:14 71.0 °F /  21.7 °C 48.0 °F /  8.9 °C 29.81in /  1009.4hPa North 1.0mph /  1.6km/h 1.0mph /  1.6km/h 44% 0.00in /  0mm
23:19 70.6 °F /  21.4 °C 48.2 °F /  9 °C 29.82in /  1009.7hPa North 1.0mph /  1.6km/h 2.0mph /  3.2km/h 45% 0.00in /  0mm
23:24 70.4 °F /  21.3 °C 48.1 °F /  8.9 °C 29.82in /  1009.7hPa Calm   1.0mph /  1.6km/h 45% 0.00in /  0mm
23:29 70.3 °F /  21.3 °C 48.0 °F /  8.9 °C 29.82in /  1009.7hPa North 2.0mph /  3.2km/h 3.0mph /  4.8km/h 45% 0.00in /  0mm
23:34 70.2 °F /  21.2 °C 47.9 °F /  8.8 °C 29.82in /  1009.7hPa North 2.0mph /  3.2km/h 3.0mph /  4.8km/h 45% 0.00in /  0mm
23:39 70.0 °F /  21.1 °C 48.3 °F /  9.1 °C 29.82in /  1009.7hPa NNW 2.0mph /  3.2km/h 3.0mph /  4.8km/h 46% 0.00in /  0mm
23:44 69.6 °F /  20.9 °C 48.5 °F /  9.2 °C 29.82in /  1009.7hPa North 2.0mph /  3.2km/h 3.0mph /  4.8km/h 47% 0.00in /  0mm
23:49 69.1 °F /  20.6 °C 48.6 °F /  9.2 °C 29.82in /  1009.7hPa North 2.0mph /  3.2km/h 3.0mph /  4.8km/h 48% 0.00in /  0mm
23:54 68.8 °F /  20.4 °C 48.3 °F /  9.1 °C 29.83in /  1010hPa NNW 2.0mph /  3.2km/h 3.0mph /  4.8km/h 48% 0.00in /  0mm
23:59 68.6 °F /  20.3 °C 48.7 °F /  9.3 °C 29.83in /  1010hPa North 2.0mph /  3.2km/h 3.0mph /  4.8km/h 49% 0.00in /  0mm
Compliments of Weather Underground